Terminal Aerodrome Forecast
Issued by NWS Wakefield, VA

Home | Current Version | Previous Version | Text Only | Print | Product List | Glossary On
Versions: 1 2 3 4 5 6 7 8 9 10 11 12 13
000
FTUS41 KAKQ 311100
TAFECG
TAF
KECG 311120Z 3112/0112 VRB03KT P6SM BKN250
     FM311500 12008KT P6SM SCT050 BKN250
     FM010000 10005KT P6SM BKN250=

USA.gov is the U.S. government's official web portal to all federal, state and local government web resources and services.